This is the latest recevied weather packets stored in our database for station/object LRBC. If no packets are shown the sender has not sent any weather packets the latest 10 day(s).
| Time | Temp. | Humidity | Pressure | Rain* | Wind** | Luminosity | Snow |
|---|---|---|---|---|---|---|---|
| 1788032028 | 20° C | 64% | 1017 hPa | - | - | - | - |
| 1788031128 | 20° C | 64% | 1016 hPa | - | - | - | - |
| 1788029328 | 21.11° C | 60% | 1016 hPa | - | - | - | - |
| 1788028427 | 21.11° C | 60% | 1016 hPa | - | - | - | - |
| 1788027528 | 20° C | 64% | 1016 hPa | - | - | - | - |
| 1788026628 | 20° C | 64% | 1016 hPa | - | - | - | - |
| 1788025729 | 21.11° C | 64% | 1016 hPa | - | - | - | - |
| 1788024828 | 21.11° C | 64% | 1016 hPa | - | - | - | - |
| 1788023928 | 22.78° C | 53% | 1016 hPa | - | - | - | - |
| 1788021228 | 25° C | 47% | 1016 hPa | - | - | - | - |
| 1788020329 | 26.11° C | 45% | 1016 hPa | - | - | - | - |
| 1788016728 | 27.22° C | 39% | 1016 hPa | - | - | - | - |
| 1788015829 | 27.22° C | 39% | 1016 hPa | - | - | - | - |
| 1788014029 | 27.22° C | 39% | 1017 hPa | - | - | - | - |
| 1788013128 | 27.78° C | 37% | 1017 hPa | - | - | - | - |
| 1788009522 | 27.78° C | 37% | 1017 hPa | - | - | - | - |
| 1788006828 | 27.78° C | 37% | 1017 hPa | - | - | - | - |
| 1788005934 | 27.22° C | 39% | 1017 hPa | - | - | - | - |
| 1788005028 | 27.22° C | 39% | 1017 hPa | - | - | - | - |
| 1788003229 | 27.22° C | 37% | 1018 hPa | - | - | - | - |
| 1788002328 | 27.22° C | 39% | 1018 hPa | - | - | - | - |
| 1788001429 | 27.22° C | 39% | 1018 hPa | - | - | - | - |
| 1788000528 | 26.11° C | 39% | 1019 hPa | - | - | - | - |
| 1787999628 | 26.11° C | 39% | 1019 hPa | - | - | - | - |
| 1787998728 | 26.11° C | 45% | 1019 hPa | - | - | - | - |
* Rain since midnight (hover to see other rain measurements)
** Current wind speed in m/s (hover to see current wind gust speed)